createdAt,value
2019-01-26T00:03:57.396Z,0.96
2019-01-26T00:09:01.616Z,0.95
2019-01-26T00:14:45.295Z,0.94
2019-01-26T00:19:49.512Z,0.96
2019-01-26T00:24:53.810Z,0.95
2019-01-26T00:29:58.038Z,1.00
2019-01-26T00:35:02.277Z,1.02
2019-01-26T00:50:45.465Z,1.05
2019-01-26T01:01:11.048Z,1.08
2019-01-26T01:06:26.575Z,1.12
2019-01-26T01:16:40.977Z,1.20
2019-01-26T01:27:02.635Z,1.21
2019-01-26T01:32:06.861Z,1.20
2019-01-26T01:37:11.162Z,1.27
2019-01-26T01:42:15.396Z,1.27
2019-01-26T01:47:38.756Z,1.25
2019-01-26T01:52:43.055Z,1.27
2019-01-26T02:03:08.772Z,1.29
2019-01-26T02:13:42.032Z,1.35
2019-01-26T02:18:46.564Z,1.38
2019-01-26T02:23:50.861Z,1.42
2019-01-26T02:29:34.544Z,1.41
2019-01-26T02:40:26.900Z,1.46
2019-01-26T02:50:43.881Z,1.47
2019-01-26T02:55:48.112Z,1.51
2019-01-26T03:00:52.360Z,1.48
2019-01-26T03:06:07.847Z,1.50
2019-01-26T03:11:12.111Z,1.57
2019-01-26T03:16:16.668Z,1.56
2019-01-26T03:21:21.209Z,1.55
2019-01-26T03:26:44.351Z,1.58
2019-01-26T03:31:48.578Z,1.58
2019-01-26T03:37:11.941Z,1.60
2019-01-26T03:42:16.168Z,1.62
2019-01-26T03:47:20.420Z,1.64
2019-01-26T03:52:43.712Z,1.62
2019-01-26T04:02:58.109Z,1.62
2019-01-26T04:08:21.370Z,1.71
2019-01-26T04:18:35.672Z,1.75
2019-01-26T04:23:58.887Z,1.78
2019-01-26T04:29:03.125Z,1.79
2019-01-26T04:34:07.428Z,1.82
2019-01-26T04:39:11.656Z,1.87
2019-01-26T04:44:34.950Z,1.92
2019-01-26T04:49:39.289Z,1.93
2019-01-26T04:54:43.514Z,1.90
2019-01-26T05:10:49.344Z,2.01
2019-01-26T05:16:32.944Z,2.07
2019-01-26T05:21:37.177Z,2.08
2019-01-26T05:26:41.403Z,2.12
2019-01-26T05:42:23.430Z,2.16
2019-01-26T06:03:15.859Z,2.21
2019-01-26T06:13:29.676Z,2.26
2019-01-26T06:18:52.970Z,2.28
2019-01-26T06:29:06.973Z,2.32
2019-01-26T06:39:40.502Z,2.37
2019-01-26T06:45:03.802Z,2.44
2019-01-26T06:50:48.312Z,2.38
2019-01-26T07:06:30.945Z,2.45
2019-01-26T07:16:56.964Z,2.50
2019-01-26T07:32:21.786Z,2.56
2019-01-26T07:37:45.093Z,2.61
2019-01-26T07:42:49.332Z,2.63
2019-01-26T07:48:16.790Z,2.67
2019-01-26T07:53:18.591Z,2.70
2019-01-26T07:58:22.816Z,2.76
2019-01-26T08:03:46.117Z,2.74
2019-01-26T08:08:50.345Z,2.83
2019-01-26T08:13:54.971Z,2.85
2019-01-26T08:19:11.231Z,2.91
2019-01-26T08:24:15.463Z,2.96
2019-01-26T08:29:38.768Z,3.01
2019-01-26T08:39:52.544Z,3.04
2019-01-26T08:44:56.775Z,3.07
2019-01-26T08:50:21.099Z,3.15
2019-01-26T08:56:04.783Z,3.14
2019-01-26T09:06:57.639Z,3.23
2019-01-26T09:12:01.872Z,3.30
2019-01-26T09:22:46.679Z,3.52
2019-01-26T09:33:45.477Z,3.68
2019-01-26T09:38:49.717Z,3.67
2019-01-26T09:43:53.981Z,3.77
2019-01-26T09:48:58.205Z,3.83
2019-01-26T10:04:41.873Z,4.03
2019-01-26T10:10:05.096Z,4.08
2019-01-26T10:15:49.948Z,4.18
2019-01-26T10:20:54.328Z,4.28
2019-01-26T10:25:58.857Z,4.35
2019-01-26T10:36:52.492Z,4.46
2019-01-26T10:42:15.719Z,4.56
2019-01-26T10:47:20.000Z,4.80
2019-01-26T10:52:43.299Z,4.85
2019-01-26T10:58:06.604Z,4.95
2019-01-26T11:03:29.916Z,5.09
2019-01-26T11:09:13.904Z,5.16
2019-01-26T11:14:37.209Z,5.14
2019-01-26T11:35:31.424Z,5.40
2019-01-26T11:40:35.706Z,5.40
2019-01-26T11:45:58.943Z,5.34
2019-01-26T11:51:22.091Z,5.43
2019-01-26T12:02:09.880Z,5.81
2019-01-26T12:07:20.207Z,5.83
2019-01-26T12:12:43.540Z,5.70
2019-01-26T12:17:48.179Z,5.72
2019-01-26T12:22:52.430Z,5.72
2019-01-26T12:27:56.666Z,5.65
2019-01-26T12:33:19.984Z,5.77
2019-01-26T12:38:43.281Z,5.81
2019-01-26T12:44:06.576Z,5.75
2019-01-26T12:59:49.611Z,5.63
2019-01-26T13:05:33.287Z,5.54
2019-01-26T13:16:28.779Z,5.58
2019-01-26T13:21:33.015Z,5.53
2019-01-26T13:26:37.236Z,5.49
2019-01-26T13:31:41.476Z,5.47
2019-01-26T13:41:55.897Z,5.32
2019-01-26T13:47:19.403Z,5.18
2019-01-26T13:52:24.035Z,5.15
2019-01-26T14:02:38.398Z,5.06
2019-01-26T14:08:01.762Z,5.20
2019-01-26T14:13:45.481Z,5.39
2019-01-26T14:18:50.075Z,5.61
2019-01-26T14:34:33.423Z,5.63
2019-01-26T14:39:49.725Z,5.51
2019-01-26T14:45:05.607Z,5.42
2019-01-26T14:50:49.896Z,5.40
2019-01-26T14:56:13.201Z,5.38
2019-01-26T15:01:17.468Z,5.39
2019-01-26T15:06:40.772Z,5.32
2019-01-26T15:11:45.059Z,5.26
2019-01-26T15:16:49.312Z,5.23
2019-01-26T15:27:41.825Z,5.25
2019-01-26T15:33:05.802Z,5.20
2019-01-26T15:38:29.103Z,5.18
2019-01-26T15:43:45.482Z,5.04
2019-01-26T15:54:00.013Z,4.95
2019-01-26T15:59:23.323Z,4.90
2019-01-26T16:04:27.556Z,4.84
2019-01-26T16:09:51.499Z,4.79
2019-01-26T16:14:56.881Z,4.75
2019-01-26T16:30:40.775Z,4.58
2019-01-26T16:46:24.366Z,4.56
2019-01-26T16:56:57.689Z,4.56
2019-01-26T17:02:20.999Z,4.52
2019-01-26T17:07:25.369Z,4.48
2019-01-26T17:12:29.607Z,4.43
2019-01-26T17:17:33.867Z,4.38
2019-01-26T17:22:38.179Z,4.41
2019-01-26T17:33:11.835Z,4.48
2019-01-26T17:38:16.100Z,4.57
2019-01-26T17:43:20.339Z,4.56
2019-01-26T17:48:24.584Z,4.63
2019-01-26T17:53:29.208Z,4.54
2019-01-26T17:58:33.475Z,4.47
2019-01-26T18:03:37.704Z,4.46
2019-01-26T18:13:52.098Z,4.32
2019-01-26T18:18:56.328Z,4.28
2019-01-26T18:34:39.902Z,4.30
2019-01-26T18:39:56.203Z,4.34
2019-01-26T18:50:56.105Z,4.37
2019-01-26T18:55:57.631Z,4.43
2019-01-26T19:01:01.857Z,4.46
2019-01-26T19:06:25.150Z,4.47
2019-01-26T19:16:58.568Z,4.49
2019-01-26T19:27:31.544Z,4.58
2019-01-26T19:32:35.784Z,4.63
2019-01-26T19:37:40.076Z,4.55
2019-01-26T19:43:03.391Z,4.58
2019-01-26T19:48:26.733Z,4.59
2019-01-26T19:53:50.026Z,4.63
2019-01-26T19:58:54.252Z,4.59
2019-01-26T20:04:17.543Z,4.51
2019-01-26T20:09:21.787Z,4.48
2019-01-26T20:19:54.962Z,4.45
2019-01-26T20:30:46.892Z,4.38
2019-01-26T20:36:10.199Z,4.45
2019-01-26T20:41:14.559Z,4.47
2019-01-26T20:46:18.800Z,4.45
2019-01-26T21:02:01.883Z,4.39
2019-01-26T21:12:16.537Z,4.35
2019-01-26T21:17:20.832Z,4.31
2019-01-26T21:22:25.211Z,4.32
2019-01-26T21:27:29.436Z,4.30
2019-01-26T21:32:33.662Z,4.28
2019-01-26T21:37:37.906Z,4.26
2019-01-26T21:42:54.069Z,4.25
2019-01-26T21:47:58.408Z,4.26
2019-01-26T21:53:02.642Z,4.23
2019-01-26T21:58:46.266Z,4.21
2019-01-26T22:03:50.576Z,4.22
2019-01-26T22:09:13.976Z,4.23
2019-01-26T22:14:18.264Z,4.21
2019-01-26T22:19:41.564Z,4.16
2019-01-26T22:24:45.796Z,4.13
2019-01-26T22:30:28.076Z,4.08
2019-01-26T22:41:01.455Z,4.03
2019-01-26T22:46:17.576Z,3.97
2019-01-26T22:51:33.896Z,3.97
2019-01-26T22:56:50.112Z,3.96
2019-01-26T23:13:54.121Z,4.00
2019-01-26T23:25:27.999Z,4.00
2019-01-26T23:31:25.465Z,4.00
2019-01-26T23:36:29.707Z,4.02
2019-01-26T23:41:34.671Z,4.03
2019-01-26T23:46:38.966Z,4.05
